Aeroporto :
LOGIN :

Iscrizione | Disclaimer

   EN    FR    IT 

 










Sommario :    VFR   VFR Marginale   IFR   IFR Intensivo   IFR Molto Intensivo
Visibilità : 
Base nubi : 
>= 8 km
>= 3000ft
5 / 8 km
1000 / 3000 ft
1500m / 5 km
500 / 1000 ft
800 / 1500m
200 / 500 ft
< 800m
< 200 ft
Simboli :   Temporali  Nebbia  Neve Forte  Precipitazioni Forti  Vento > 20 kt
SIGMETs :   Varie  Temporali  Ghiacco  Turbolenza  Onda orograficha  Ceneri Vulcaniche






- Altitudine del aeroporto : 209 ft
- Codice IATA : CLY


LFKC - Calvi

ULTIMO METAR :
  • 010200Z AUTO 18005KT 160V220 CAVOK 03/01 Q1017

METARs OBSOLETI :
  • 010130Z AUTO 16008KT CAVOK 04/01 Q1017
  • 010100Z AUTO 19005KT CAVOK 05/02 Q1017
  • 010030Z AUTO VRB04KT CAVOK 05/02 Q1017
  • 010000Z AUTO VRB02KT CAVOK 06/03 Q1017
  • 312330Z AUTO VRB02KT CAVOK 05/03 Q1017

TAF TAF LFKC
Valido dal 31 a 15 ore il 01 a 15 ore UTC


311400Z 3115/0115 04010KT 9999 NSC TX16/0112Z TN08/3121Z
PROB30
TEMPO 3115/3118 SHRA SCT026TCU
ATIS : +33 4 95 65 82 49



MetMap, La meteo Aeronautica in un colpo d'occhio ! - Copyright ORBIFLY Dicembre 2007 - Disclaimer

ORBIFLY MET'MAP TEAM :

Programmazione e sviluppo : Alexandra Zaïnal
Concezione : Baudouin d'Aumeries
Aiuto per la programmazione : Marc-Olivier Méhu
Supporto tecnico e logistico : Manuel Goepfert
Aiuto per la traduzione : Arnaldo La Scala

Contatto : metmap@orbifly.com




FONTI E CREDITI :

   NOAA